createdAt,value
2022-09-02T00:01:08.104Z,0.9
2022-09-02T00:02:15.855Z,1.1
2022-09-02T00:03:25.737Z,0.8
2022-09-02T00:04:35.112Z,0.9
2022-09-02T00:05:43.786Z,1
2022-09-02T00:06:53.461Z,0.9
2022-09-02T00:08:02.162Z,0.7
2022-09-02T00:09:10.816Z,0.7
2022-09-02T00:10:20.491Z,0.9
2022-09-02T00:11:29.253Z,0.8
2022-09-02T00:12:38.922Z,0.8
2022-09-02T00:13:48.623Z,1
2022-09-02T00:14:56.280Z,0.7
2022-09-02T00:16:05.997Z,0.7
2022-09-02T00:17:14.620Z,0.7
2022-09-02T00:18:24.264Z,0.7
2022-09-02T00:19:33.957Z,0.8
2022-09-02T00:20:42.622Z,0.6
2022-09-02T00:21:52.282Z,0.6
2022-09-02T00:23:00.924Z,0.8
2022-09-02T00:24:08.574Z,0.9
2022-09-02T00:25:17.287Z,0.8
2022-09-02T00:26:24.947Z,0.9
2022-09-02T00:27:33.683Z,0.8
2022-09-02T00:28:49.162Z,0.7
2022-09-02T00:29:51.956Z,0.8
2022-09-02T00:31:01.657Z,1
2022-09-02T00:32:10.365Z,0.7
2022-09-02T00:33:19.001Z,0.9
2022-09-02T00:34:28.631Z,0.7
2022-09-02T00:35:37.297Z,0.8
2022-09-02T00:36:45.038Z,0.7
2022-09-02T00:37:52.725Z,0.8
2022-09-02T00:39:01.392Z,1
2022-09-02T00:40:11.080Z,0.9
2022-09-02T00:41:18.793Z,1
2022-09-02T00:42:28.466Z,0.8
2022-09-02T00:43:37.136Z,1.1
2022-09-02T00:44:44.802Z,1.1
2022-09-02T00:45:54.521Z,1
2022-09-02T00:47:03.104Z,1
2022-09-02T00:48:11.784Z,0.9
2022-09-02T00:49:21.438Z,1.1
2022-09-02T00:50:29.107Z,1.1
2022-09-02T00:51:38.777Z,1.3
2022-09-02T00:52:47.420Z,1.2
2022-09-02T00:53:57.080Z,1.1
2022-09-02T00:55:05.734Z,1
2022-09-02T00:56:13.392Z,1
2022-09-02T00:57:22.056Z,1.2
2022-09-02T00:58:30.777Z,1
2022-09-02T00:59:38.451Z,1
2022-09-02T01:00:48.329Z,0.9
2022-09-02T01:01:56.942Z,0.9
2022-09-02T01:03:04.463Z,1
2022-09-02T01:04:14.122Z,0.9
2022-09-02T01:05:22.816Z,1.1
2022-09-02T01:06:31.466Z,1
2022-09-02T01:07:41.123Z,1
2022-09-02T01:08:49.792Z,1
2022-09-02T01:09:59.481Z,0.8
2022-09-02T01:11:09.150Z,1
2022-09-02T01:12:17.817Z,1
2022-09-02T01:13:27.485Z,1
2022-09-02T01:14:36.154Z,0.9
2022-09-02T01:15:44.822Z,1
2022-09-02T01:16:54.501Z,0.8
2022-09-02T01:18:03.194Z,1.1
2022-09-02T01:19:12.880Z,0.9
2022-09-02T01:20:21.534Z,1.3
2022-09-02T01:21:31.180Z,0.8
2022-09-02T01:22:40.859Z,1
2022-09-02T01:23:48.502Z,1.2
2022-09-02T01:24:57.166Z,1.6
2022-09-02T01:26:06.814Z,1.1
2022-09-02T01:27:15.458Z,0.9
2022-09-02T01:28:24.238Z,1.1
2022-09-02T01:29:32.876Z,1.1
2022-09-02T01:30:41.526Z,1.1
2022-09-02T01:31:51.223Z,1.1
2022-09-02T01:32:58.905Z,1.3
2022-09-02T01:34:07.601Z,1
2022-09-02T01:35:17.259Z,1.1
2022-09-02T01:36:24.915Z,1
2022-09-02T01:37:34.579Z,1
2022-09-02T01:38:43.227Z,1.1
2022-09-02T01:39:51.910Z,1
2022-09-02T01:41:01.573Z,1.1
2022-09-02T01:42:09.245Z,0.9
2022-09-02T01:43:18.053Z,1
2022-09-02T01:44:27.588Z,0.9
2022-09-02T01:45:37.370Z,1.2
2022-09-02T01:46:47.091Z,1
2022-09-02T01:47:56.723Z,0.7
2022-09-02T01:49:05.388Z,0.9
2022-09-02T01:50:15.055Z,1
2022-09-02T01:51:23.753Z,1
2022-09-02T01:52:32.400Z,1
2022-09-02T01:53:42.057Z,0.8
2022-09-02T01:54:49.698Z,1.2
2022-09-02T01:55:59.364Z,1.3
2022-09-02T01:57:09.035Z,1.1
2022-09-02T01:58:16.694Z,1
2022-09-02T01:59:26.363Z,0.9
2022-09-02T02:00:35.112Z,1
2022-09-02T02:01:44.734Z,0.9
2022-09-02T02:02:54.408Z,1
2022-09-02T02:04:02.060Z,0.9
2022-09-02T02:05:11.722Z,1.3
2022-09-02T02:06:20.370Z,1.2
2022-09-02T02:07:28.031Z,0.9
2022-09-02T02:08:37.729Z,0.9
2022-09-02T02:09:46.397Z,0.8
2022-09-02T02:10:55.046Z,0.7
2022-09-02T02:12:04.687Z,1
2022-09-02T02:13:13.390Z,0.8
2022-09-02T02:14:23.132Z,0.7
2022-09-02T02:16:31.211Z,0.9
2022-09-02T02:17:40.815Z,1.1
2022-09-02T02:18:49.477Z,1
2022-09-02T02:19:58.183Z,1
2022-09-02T02:21:07.855Z,0.9
2022-09-02T02:22:16.517Z,1.1
2022-09-02T02:23:26.172Z,1.1
2022-09-02T02:24:34.819Z,1.2
2022-09-02T02:25:42.494Z,1
2022-09-02T02:26:52.155Z,1.6
2022-09-02T02:28:00.816Z,1.6
2022-09-02T02:29:11.467Z,1.3
2022-09-02T02:30:20.103Z,1.5
2022-09-02T02:31:28.967Z,1.8
2022-09-02T02:32:38.591Z,2
2022-09-02T02:33:47.246Z,2.6
2022-09-02T02:34:56.923Z,2.4
2022-09-02T02:36:05.583Z,2
2022-09-02T02:37:14.251Z,2.2
2022-09-02T02:38:23.928Z,1.7
2022-09-02T02:39:31.579Z,1.7
2022-09-02T02:40:40.315Z,1.8
2022-09-02T02:41:50.905Z,1.4
2022-09-02T02:42:59.573Z,1.3
2022-09-02T02:44:09.253Z,1.3
2022-09-02T02:45:18.885Z,1
2022-09-02T02:46:27.578Z,1.3
2022-09-02T02:47:37.202Z,1.5
2022-09-02T02:48:46.974Z,1.1
2022-09-02T02:49:56.668Z,1
2022-09-02T02:51:06.320Z,0.9
2022-09-02T02:52:15.012Z,0.8
2022-09-02T02:53:24.657Z,0.7
2022-09-02T02:54:34.757Z,0.7
2022-09-02T02:55:41.947Z,0.8
2022-09-02T02:56:51.615Z,0.7
2022-09-02T02:58:00.260Z,0.9
2022-09-02T02:59:08.918Z,0.7
2022-09-02T03:00:17.596Z,1
2022-09-02T03:01:27.330Z,1.3
2022-09-02T03:02:37.014Z,1.2
2022-09-02T03:03:46.603Z,1.1
2022-09-02T03:04:56.266Z,1.2
2022-09-02T03:06:05.997Z,1
2022-09-02T03:07:13.651Z,1.2
2022-09-02T03:08:22.302Z,1.4
2022-09-02T03:09:31.957Z,1.1
2022-09-02T03:10:39.603Z,1.4
2022-09-02T03:11:49.293Z,0.9
2022-09-02T03:12:57.978Z,0.9
2022-09-02T03:14:06.654Z,1.3
2022-09-02T03:15:16.311Z,1.1
2022-09-02T03:16:24.022Z,1.4
2022-09-02T03:17:32.633Z,1.3
2022-09-02T03:18:42.294Z,1.2
2022-09-02T03:19:49.953Z,1.4
2022-09-02T03:20:59.613Z,1.4
2022-09-02T03:22:09.273Z,1.5
2022-09-02T03:23:18.016Z,1.2
2022-09-02T03:24:27.614Z,1.4
2022-09-02T03:25:37.249Z,1.3
2022-09-02T03:26:47.885Z,1.1
2022-09-02T03:27:57.538Z,0.9
2022-09-02T03:29:05.298Z,0.8
2022-09-02T03:30:14.967Z,0.9
2022-09-02T03:31:23.689Z,1.5
2022-09-02T03:32:32.280Z,1.2
2022-09-02T03:33:41.952Z,1.3
2022-09-02T03:34:50.804Z,1.1
2022-09-02T03:35:59.477Z,1.4
2022-09-02T03:37:09.134Z,1.2
2022-09-02T03:38:16.780Z,1.1
2022-09-02T03:39:26.447Z,0.9
2022-09-02T03:40:35.215Z,1
2022-09-02T03:41:43.803Z,1.1
2022-09-02T03:42:56.695Z,1
2022-09-02T03:44:02.149Z,1.3
2022-09-02T03:45:10.820Z,0.9
2022-09-02T03:46:20.568Z,1
2022-09-02T03:47:28.138Z,1
2022-09-02T03:48:37.813Z,0.8
2022-09-02T03:49:46.439Z,1
2022-09-02T03:50:54.112Z,0.9
2022-09-02T03:52:03.828Z,0.9
2022-09-02T03:53:18.274Z,1.1
2022-09-02T03:54:22.157Z,0.9
2022-09-02T03:55:30.819Z,0.9
2022-09-02T03:56:39.568Z,1
2022-09-02T03:57:49.261Z,1
2022-09-02T03:58:57.933Z,1
2022-09-02T04:00:05.582Z,1.6
2022-09-02T04:01:15.293Z,1.1
2022-09-02T04:02:23.027Z,1.1
2022-09-02T04:03:32.620Z,1.3
2022-09-02T04:04:42.304Z,0.9
2022-09-02T04:05:50.958Z,1.1
2022-09-02T04:07:00.623Z,1.2
2022-09-02T04:08:10.291Z,1
2022-09-02T04:09:18.991Z,1.1
2022-09-02T04:10:28.639Z,0.9
2022-09-02T04:11:36.310Z,1
2022-09-02T04:12:44.970Z,1.2
2022-09-02T04:13:53.619Z,1.2
2022-09-02T04:15:02.305Z,1.2
2022-09-02T04:16:12.020Z,1
2022-09-02T04:17:20.617Z,0.9
2022-09-02T04:18:30.271Z,0.9
2022-09-02T04:19:38.915Z,1.1
2022-09-02T04:20:47.627Z,1.3
2022-09-02T04:21:56.292Z,0.9
2022-09-02T04:23:04.957Z,1
2022-09-02T04:24:13.618Z,1.3
2022-09-02T04:25:26.738Z,1
2022-09-02T04:26:33.951Z,1.1
2022-09-02T04:27:41.593Z,1.2
2022-09-02T04:28:51.320Z,1.2
2022-09-02T04:29:58.974Z,1
2022-09-02T04:31:07.749Z,1.3
2022-09-02T04:32:16.339Z,1.3
2022-09-02T04:33:25.012Z,1
2022-09-02T04:34:34.679Z,1
2022-09-02T04:35:44.341Z,1.4
2022-09-02T04:36:54.031Z,1.2
2022-09-02T04:38:02.701Z,1.4
2022-09-02T04:39:10.356Z,1
2022-09-02T04:40:19.074Z,1.1
2022-09-02T04:41:27.677Z,1.3
2022-09-02T04:42:36.356Z,1
2022-09-02T04:43:46.054Z,1.1
2022-09-02T04:44:53.718Z,1.1
2022-09-02T04:46:03.471Z,1.6
2022-09-02T04:47:12.070Z,1.5
2022-09-02T04:48:21.741Z,1.5
2022-09-02T04:49:31.465Z,1.3
2022-09-02T04:50:40.114Z,1.6
2022-09-02T04:51:48.794Z,1.5
2022-09-02T04:52:58.519Z,1.4
2022-09-02T04:54:07.222Z,1.5
2022-09-02T04:55:17.048Z,1.5
2022-09-02T04:56:25.699Z,1.2
2022-09-02T04:57:33.355Z,1.4
2022-09-02T04:58:43.027Z,0.9
2022-09-02T04:59:51.677Z,1.5
2022-09-02T05:01:00.361Z,1.3
2022-09-02T05:02:10.172Z,1.3
2022-09-02T05:03:18.720Z,1
2022-09-02T05:04:28.389Z,1.3
2022-09-02T05:05:36.048Z,1.2
2022-09-02T05:06:45.695Z,1.2
2022-09-02T05:07:55.381Z,1
2022-09-02T05:09:03.052Z,1.2
2022-09-02T05:10:11.710Z,1.2
2022-09-02T05:11:20.416Z,1
2022-09-02T05:12:28.083Z,1
2022-09-02T05:13:37.735Z,1
2022-09-02T05:14:46.398Z,1.6
2022-09-02T05:15:55.132Z,1.3
2022-09-02T05:17:07.590Z,1.2
2022-09-02T05:18:13.420Z,1.1
2022-09-02T05:19:22.094Z,1.1
2022-09-02T05:20:31.820Z,1.3
2022-09-02T05:21:39.495Z,1.4
2022-09-02T05:22:48.226Z,1.3
2022-09-02T05:23:56.974Z,1.5
2022-09-02T05:25:04.609Z,1.8
2022-09-02T05:26:14.332Z,1.5
2022-09-02T05:27:21.985Z,1.8
2022-09-02T05:28:31.650Z,1.6
2022-09-02T05:29:45.171Z,1.3
2022-09-02T05:30:50.027Z,1.2
2022-09-02T05:31:59.661Z,1.2
2022-09-02T05:33:09.325Z,1.5
2022-09-02T05:34:19.068Z,1.4
2022-09-02T05:35:28.800Z,1.3
2022-09-02T05:36:36.450Z,1.1
2022-09-02T05:37:45.171Z,1.2
2022-09-02T05:38:54.830Z,0.9
2022-09-02T05:40:04.492Z,1.2
2022-09-02T05:41:13.317Z,1.3
2022-09-02T05:42:21.981Z,1.1
2022-09-02T05:43:30.648Z,1.4
2022-09-02T05:44:40.295Z,1
2022-09-02T05:45:47.972Z,1.4
2022-09-02T05:46:56.635Z,1.6
2022-09-02T05:48:06.299Z,1.6
2022-09-02T05:49:13.954Z,1.3
2022-09-02T05:50:23.676Z,1.2
2022-09-02T05:51:33.323Z,1.5
2022-09-02T05:52:41.048Z,1.4
2022-09-02T05:53:50.904Z,1.6
2022-09-02T05:54:59.621Z,1.4
2022-09-02T05:56:08.278Z,0.8
2022-09-02T05:57:17.982Z,1.2
2022-09-02T05:58:25.792Z,1
2022-09-02T05:59:35.466Z,1.2
2022-09-02T06:00:44.131Z,1
2022-09-02T06:01:51.875Z,1.1
2022-09-02T06:03:01.513Z,1.4
2022-09-02T06:04:09.153Z,1.1
2022-09-02T06:05:16.822Z,1.2
2022-09-02T06:06:26.502Z,1.3
2022-09-02T06:07:35.179Z,1
2022-09-02T06:08:44.851Z,0.9
2022-09-02T06:09:53.546Z,0.7
2022-09-02T06:11:02.211Z,0.9
2022-09-02T06:12:11.879Z,1.3
2022-09-02T06:13:20.614Z,1
2022-09-02T06:14:29.223Z,0.8
2022-09-02T06:15:38.954Z,0.9
2022-09-02T06:16:47.599Z,0.9
2022-09-02T06:17:57.258Z,0.8
2022-09-02T06:19:05.922Z,0.8
2022-09-02T06:20:15.586Z,0.7
2022-09-02T06:21:26.271Z,0.7
2022-09-02T06:22:33.919Z,0.8
2022-09-02T06:23:42.602Z,1
2022-09-02T06:24:52.263Z,1.1
2022-09-02T06:26:01.945Z,1.3
2022-09-02T06:27:11.666Z,1.3
2022-09-02T06:28:19.305Z,0.7
2022-09-02T06:29:28.986Z,0.7
2022-09-02T06:30:37.680Z,1.1
2022-09-02T06:31:46.288Z,1
2022-09-02T06:32:56.047Z,1.1
2022-09-02T06:34:05.733Z,1.2
2022-09-02T06:35:15.469Z,1.1
2022-09-02T06:36:28.201Z,1.2
2022-09-02T06:37:33.785Z,1.3
2022-09-02T06:38:45.834Z,0.7
2022-09-02T06:39:53.184Z,0.8
2022-09-02T06:41:01.817Z,0.9
2022-09-02T06:42:11.478Z,1.1
2022-09-02T06:43:19.126Z,0.6
2022-09-02T06:44:27.925Z,1
2022-09-02T06:45:37.599Z,1.2
2022-09-02T06:46:47.266Z,1
2022-09-02T06:47:56.968Z,1
2022-09-02T06:49:05.627Z,0.9
2022-09-02T06:50:13.395Z,0.8
2022-09-02T06:51:23.082Z,1.4
2022-09-02T06:52:30.737Z,0.7
2022-09-02T06:53:39.396Z,0.7
2022-09-02T06:54:49.052Z,1.2
2022-09-02T06:55:56.731Z,0.8
2022-09-02T06:57:06.411Z,0.7
2022-09-02T06:58:15.076Z,1.5
2022-09-02T06:59:23.733Z,0.6
2022-09-02T07:00:33.432Z,0.8
2022-09-02T07:01:41.358Z,0.8
2022-09-02T07:02:49.873Z,0.8
2022-09-02T07:03:59.545Z,0.6
2022-09-02T07:05:07.219Z,0.7
2022-09-02T07:06:16.864Z,0.8
2022-09-02T07:07:25.550Z,0.7
2022-09-02T07:08:33.283Z,1
2022-09-02T07:09:42.996Z,1.1
2022-09-02T07:10:50.642Z,0.8
2022-09-02T07:12:04.149Z,0.7
2022-09-02T07:13:09.996Z,1.3
2022-09-02T07:14:17.661Z,0.6
2022-09-02T07:15:27.348Z,1
2022-09-02T07:16:37.093Z,0.7
2022-09-02T07:17:44.681Z,0.7
2022-09-02T07:18:54.376Z,0.7
2022-09-02T07:20:03.055Z,0.7
2022-09-02T07:21:11.700Z,0.7
2022-09-02T07:22:21.344Z,0.6
2022-09-02T07:23:29.012Z,0.8
2022-09-02T07:24:38.708Z,0.5
2022-09-02T07:25:47.388Z,0.6
2022-09-02T07:26:57.053Z,0.7
2022-09-02T07:28:06.787Z,0.5
2022-09-02T07:29:16.439Z,0.5
2022-09-02T07:30:25.109Z,0.5
2022-09-02T07:31:34.781Z,0.6
2022-09-02T07:32:42.421Z,0.9
2022-09-02T07:33:52.095Z,0.7
2022-09-02T07:35:01.819Z,0.4
2022-09-02T07:36:12.305Z,0.4
2022-09-02T07:37:22.146Z,0.6
2022-09-02T07:38:32.816Z,0.7
2022-09-02T07:39:42.482Z,0.4
2022-09-02T07:40:56.682Z,0.3
2022-09-02T07:42:01.871Z,0.7
2022-09-02T07:43:11.546Z,0.6
2022-09-02T07:44:20.230Z,0.6
2022-09-02T07:45:27.925Z,0.5
2022-09-02T07:46:37.590Z,0.6
2022-09-02T07:47:46.405Z,0.4
2022-09-02T07:48:55.080Z,0.3
2022-09-02T07:50:21.436Z,0.3
2022-09-02T07:51:13.383Z,0.3
2022-09-02T07:52:23.066Z,0.3
2022-09-02T07:53:32.749Z,0.7
2022-09-02T07:54:41.489Z,0.4
2022-09-02T07:55:51.206Z,0.3
2022-09-02T07:56:59.878Z,0.3
2022-09-02T07:58:08.542Z,0.3
2022-09-02T07:59:18.222Z,0.2
2022-09-02T08:00:25.884Z,0.4
2022-09-02T08:01:35.629Z,0.3
2022-09-02T08:02:45.307Z,0.3
2022-09-02T08:03:52.919Z,0.3
2022-09-02T08:05:02.776Z,0.7
2022-09-02T08:06:11.430Z,0.3
2022-09-02T08:07:20.090Z,0.2
2022-09-02T08:08:28.791Z,0.4
2022-09-02T08:09:37.440Z,0.3
2022-09-02T08:10:47.131Z,0.4
2022-09-02T08:11:55.805Z,0.2
2022-09-02T08:13:03.473Z,0.2
2022-09-02T08:14:13.188Z,0.4
2022-09-02T08:15:20.855Z,0.3
2022-09-02T08:16:30.567Z,0.2
2022-09-02T08:17:40.195Z,0.3
2022-09-02T08:18:48.857Z,0.2
2022-09-02T08:19:58.519Z,0.7
2022-09-02T08:21:07.163Z,0.4
2022-09-02T08:22:15.869Z,0.3
2022-09-02T08:23:36.521Z,0.3
2022-09-02T08:24:34.294Z,0.3
2022-09-02T08:25:43.967Z,0.2
2022-09-02T08:26:52.616Z,0.3
2022-09-02T08:28:02.318Z,0.2
2022-09-02T08:29:12.691Z,0.3
2022-09-02T08:30:21.394Z,0.3
2022-09-02T08:31:31.097Z,0.4
2022-09-02T08:32:39.710Z,0.2
2022-09-02T08:33:47.360Z,0.3
2022-09-02T08:34:57.016Z,0.2
2022-09-02T08:36:04.660Z,0.4
2022-09-02T08:37:14.339Z,0.3
2022-09-02T08:38:24.170Z,0.2
2022-09-02T08:39:32.737Z,0.4
2022-09-02T08:40:42.377Z,0.2
2022-09-02T08:41:51.038Z,0.3
2022-09-02T08:42:59.727Z,0.2
2022-09-02T08:44:09.409Z,0.3
2022-09-02T08:45:17.066Z,0.3
2022-09-02T08:46:26.728Z,0.4
2022-09-02T08:47:36.397Z,0.2
2022-09-02T08:48:44.146Z,0.2
2022-09-02T08:49:53.821Z,0.2
2022-09-02T08:51:02.625Z,0.2
2022-09-02T08:52:11.415Z,0.1
2022-09-02T08:53:20.934Z,0.1
2022-09-02T08:54:29.586Z,0.3
2022-09-02T08:55:38.259Z,0.2
2022-09-02T08:56:47.941Z,0.3
2022-09-02T08:57:55.696Z,0.2
2022-09-02T08:59:05.284Z,0.1
2022-09-02T09:00:14.934Z,0.2
2022-09-02T09:01:22.632Z,0.3
2022-09-02T09:02:32.363Z,0.1
2022-09-02T09:03:40.923Z,0.3
2022-09-02T09:04:49.574Z,0.2
2022-09-02T09:05:59.230Z,0.3
2022-09-02T09:07:07.894Z,0.3
2022-09-02T09:08:18.081Z,0.2
2022-09-02T09:09:27.290Z,0.3
2022-09-02T09:10:34.942Z,0.2
2022-09-02T09:11:44.616Z,0.3
2022-09-02T09:12:52.248Z,0.1
2022-09-02T09:14:00.920Z,0.4
2022-09-02T09:15:10.565Z,0.3
2022-09-02T09:16:20.264Z,0.1
2022-09-02T09:17:29.921Z,0.2
2022-09-02T09:18:39.650Z,0.2
2022-09-02T09:19:48.339Z,0.2
2022-09-02T09:20:57.017Z,0.2
2022-09-02T09:22:05.675Z,0.1
2022-09-02T09:23:15.991Z,0.1
2022-09-02T09:24:24.037Z,0.3
2022-09-02T09:25:31.738Z,0.2
2022-09-02T09:26:41.400Z,0.1
2022-09-02T09:27:51.078Z,0.3
2022-09-02T09:28:59.733Z,0.2
2022-09-02T09:30:12.944Z,0.1
2022-09-02T09:31:18.157Z,0.1
2022-09-02T09:32:26.777Z,0.1
2022-09-02T09:33:36.398Z,0.3
2022-09-02T09:34:44.075Z,0.3
2022-09-02T09:35:53.745Z,0.3
2022-09-02T09:37:03.432Z,0.3
2022-09-02T09:38:12.142Z,0.1
2022-09-02T09:39:21.823Z,0.2
2022-09-02T09:40:30.633Z,0.2
2022-09-02T09:41:39.169Z,0.2
2022-09-02T09:42:49.940Z,0.2
2022-09-02T09:43:58.508Z,0.2
2022-09-02T09:45:08.171Z,0.2
2022-09-02T09:46:16.935Z,0.1
2022-09-02T09:47:24.511Z,0.1
2022-09-02T09:48:34.203Z,0.1
2022-09-02T09:49:41.866Z,0.3
2022-09-02T09:50:51.529Z,0.3
2022-09-02T09:52:00.184Z,0.2
2022-09-02T09:53:08.855Z,0.2
2022-09-02T09:54:18.672Z,0.2
2022-09-02T09:55:28.307Z,0.2
2022-09-02T09:56:37.964Z,0.2
2022-09-02T09:57:47.615Z,0.3
2022-09-02T09:58:56.297Z,0.2
2022-09-02T10:00:05.015Z,0.1
2022-09-02T10:01:14.801Z,0.2
2022-09-02T10:02:23.461Z,0.2
2022-09-02T10:03:33.260Z,0.4
2022-09-02T10:04:43.842Z,0.3
2022-09-02T10:05:51.407Z,0.1
2022-09-02T10:07:01.092Z,0.2
2022-09-02T10:08:09.880Z,0.2
2022-09-02T10:09:19.420Z,0.3
2022-09-02T10:10:29.130Z,0.2
2022-09-02T10:11:37.960Z,0.2
2022-09-02T10:12:47.647Z,0.3
2022-09-02T10:13:56.318Z,0.1
2022-09-02T10:15:05.018Z,0.3
2022-09-02T10:16:13.753Z,0.3
2022-09-02T10:17:22.431Z,0.2
2022-09-02T10:18:31.094Z,0.2
2022-09-02T10:19:40.813Z,0.4
2022-09-02T10:21:04.808Z,0.1
2022-09-02T10:22:01.125Z,0.1
2022-09-02T10:23:10.822Z,0.2
2022-09-02T10:24:20.514Z,0.1
2022-09-02T10:25:30.206Z,0.2
2022-09-02T10:26:38.882Z,0.2
2022-09-02T10:27:48.548Z,0.1
2022-09-02T10:29:00.809Z,0.1
2022-09-02T10:30:07.906Z,0.1
2022-09-02T10:31:17.628Z,0.1
2022-09-02T10:32:26.270Z,0.1
2022-09-02T10:33:35.963Z,0.1
2022-09-02T10:34:45.652Z,0.1
2022-09-02T10:35:54.330Z,0.2
2022-09-02T10:37:04.005Z,0.1
2022-09-02T10:38:12.657Z,0.1
2022-09-02T10:39:21.317Z,0.2
2022-09-02T10:40:31.065Z,0.2
2022-09-02T10:41:39.713Z,0.1
2022-09-02T10:42:49.374Z,0.2
2022-09-02T10:43:59.019Z,0
2022-09-02T10:45:05.714Z,0.2
2022-09-02T10:46:15.443Z,0.2
2022-09-02T10:47:23.134Z,0.3
2022-09-02T10:48:32.730Z,0.2
2022-09-02T10:49:42.396Z,0.2
2022-09-02T10:50:52.077Z,0.1
2022-09-02T10:52:01.779Z,0.2
2022-09-02T10:53:11.455Z,0.2
2022-09-02T10:54:19.181Z,0.3
2022-09-02T10:55:29.861Z,0.1
2022-09-02T10:56:38.523Z,0
2022-09-02T10:57:48.311Z,0.2
2022-09-02T11:00:05.644Z,0.2
2022-09-02T11:01:15.351Z,0.3
2022-09-02T11:02:23.985Z,0.1
2022-09-02T11:03:32.736Z,0.2
2022-09-02T11:04:42.353Z,0.1
2022-09-02T11:05:50.030Z,0.2
2022-09-02T11:07:02.770Z,0.2
2022-09-02T11:08:10.348Z,0.2
2022-09-02T11:09:19.072Z,0.1
2022-09-02T11:10:28.734Z,0.2
2022-09-02T11:11:37.403Z,0.1
2022-09-02T11:12:45.075Z,0.1
2022-09-02T11:13:53.742Z,0.1
2022-09-02T11:15:02.455Z,0.1
2022-09-02T11:16:12.218Z,0.2
2022-09-02T11:17:21.771Z,0.2
2022-09-02T11:18:31.421Z,0.3
2022-09-02T11:19:41.118Z,0.1
2022-09-02T11:20:49.823Z,0.2
2022-09-02T11:21:58.484Z,0.2
2022-09-02T11:23:08.149Z,0.2
2022-09-02T11:24:15.840Z,0.1
2022-09-02T11:25:25.503Z,0.2
2022-09-02T11:26:35.206Z,0.2
2022-09-02T11:27:44.940Z,0.1
2022-09-02T11:28:54.632Z,0.1
2022-09-02T11:30:04.306Z,0.1
2022-09-02T11:31:11.995Z,0.1
2022-09-02T11:32:21.718Z,0.1
2022-09-02T11:33:31.384Z,0.1
2022-09-02T11:34:40.203Z,0
2022-09-02T11:35:49.725Z,0.2
2022-09-02T11:36:58.388Z,0.2
2022-09-02T11:38:08.157Z,0.2
2022-09-02T11:39:21.863Z,0.1
2022-09-02T11:40:34.090Z,0.2
2022-09-02T11:41:37.853Z,0.1
2022-09-02T11:42:45.790Z,0.1
2022-09-02T11:43:53.500Z,0.2
2022-09-02T11:45:03.180Z,0.3
2022-09-02T11:46:10.910Z,0.6
2022-09-02T11:47:18.529Z,0.1
2022-09-02T11:48:28.207Z,0.2
2022-09-02T11:49:35.876Z,0.5
2022-09-02T11:50:46.560Z,0.1
2022-09-02T11:51:55.216Z,0.1
2022-09-02T11:53:03.889Z,0.1
2022-09-02T11:54:15.555Z,0.2
2022-09-02T11:55:24.236Z,0.1
2022-09-02T11:56:32.929Z,0.2
2022-09-02T11:57:42.623Z,0.1
2022-09-02T11:58:51.307Z,0.2
2022-09-02T12:00:01.001Z,0.1
2022-09-02T12:01:10.186Z,0.1
2022-09-02T12:02:19.466Z,0.1
2022-09-02T12:03:41.123Z,0.4
2022-09-02T12:04:59.056Z,0.1
2022-09-02T12:05:50.530Z,0.1
2022-09-02T12:07:02.324Z,0.1
2022-09-02T12:08:09.765Z,0.2
2022-09-02T12:09:19.455Z,0.1
2022-09-02T12:10:28.126Z,0.2
2022-09-02T12:11:35.821Z,0.2
2022-09-02T12:12:46.926Z,0.1
2022-09-02T12:13:54.196Z,0.1
2022-09-02T12:15:02.876Z,0.2
2022-09-02T12:16:11.699Z,0.2
2022-09-02T12:17:21.272Z,0.1
2022-09-02T12:18:31.102Z,0.1
2022-09-02T12:19:39.746Z,0.2
2022-09-02T12:20:51.347Z,0.1
2022-09-02T12:22:00.082Z,0.1
2022-09-02T12:23:07.758Z,0.1
2022-09-02T12:24:17.517Z,0.1
2022-09-02T12:25:27.354Z,0.1
2022-09-02T12:26:36.879Z,0.2
2022-09-02T12:27:46.551Z,0
2022-09-02T12:28:54.197Z,0.1
2022-09-02T12:30:03.899Z,0.1
2022-09-02T12:31:12.646Z,0.1
2022-09-02T12:32:23.293Z,0.1
2022-09-02T12:33:32.987Z,0
2022-09-02T12:34:40.644Z,0.1
2022-09-02T12:35:49.405Z,0.2
2022-09-02T12:36:59.100Z,0.1
2022-09-02T12:38:08.754Z,0.1
2022-09-02T12:39:18.428Z,0.1
2022-09-02T12:40:29.172Z,0.1
2022-09-02T12:41:36.779Z,0
2022-09-02T12:42:46.643Z,0.1
2022-09-02T12:43:56.061Z,0.1
2022-09-02T12:45:05.718Z,0.1
2022-09-02T12:46:15.398Z,0.1
2022-09-02T12:47:23.091Z,0
2022-09-02T12:48:37.926Z,0.1
2022-09-02T12:49:41.385Z,0.1
2022-09-02T12:50:50.057Z,0
2022-09-02T12:51:59.745Z,0.2
2022-09-02T12:53:07.419Z,0.1
2022-09-02T12:54:15.101Z,0.1
2022-09-02T12:55:24.749Z,0.1
2022-09-02T12:56:33.392Z,0
2022-09-02T12:57:43.060Z,0.1
2022-09-02T12:58:52.741Z,0.1
2022-09-02T13:00:00.397Z,0.2
2022-09-02T13:01:10.065Z,0.3
2022-09-02T13:02:18.866Z,0.2
2022-09-02T13:03:28.533Z,0.2
2022-09-02T13:04:38.339Z,0.1
2022-09-02T13:05:47.029Z,0.2
2022-09-02T13:06:56.679Z,0.1
2022-09-02T13:08:06.323Z,0.2
2022-09-02T13:09:16.064Z,0.1
2022-09-02T13:10:25.682Z,0.1
2022-09-02T13:11:34.331Z,0.1
2022-09-02T13:12:43.013Z,0.1
2022-09-02T13:13:52.700Z,0.2
2022-09-02T13:15:01.364Z,0.2
2022-09-02T13:16:13.465Z,0.1
2022-09-02T13:17:37.419Z,0.1
2022-09-02T13:18:31.386Z,0.2
2022-09-02T13:19:41.065Z,0.1
2022-09-02T13:20:52.469Z,0.1
2022-09-02T13:21:58.445Z,0.2
2022-09-02T13:23:08.181Z,0.1
2022-09-02T13:24:17.877Z,0.2
2022-09-02T13:25:29.159Z,0.1
2022-09-02T13:26:49.187Z,0.1
2022-09-02T13:27:47.909Z,0.1
2022-09-02T13:28:57.597Z,0.1
2022-09-02T13:30:06.269Z,0
2022-09-02T13:31:15.013Z,0.1
2022-09-02T13:32:24.668Z,0.2
2022-09-02T13:33:32.341Z,0.1
2022-09-02T13:34:42.026Z,0.2
2022-09-02T13:35:50.718Z,0.2
2022-09-02T13:37:00.385Z,0.2
2022-09-02T13:39:18.781Z,0.1
2022-09-02T13:40:28.458Z,0.1
2022-09-02T13:41:38.132Z,0.2
2022-09-02T13:42:46.821Z,0.1
2022-09-02T13:43:56.547Z,0.1
2022-09-02T13:45:05.256Z,0.1
2022-09-02T13:46:12.960Z,0.1
2022-09-02T13:47:22.643Z,0.2
2022-09-02T13:48:32.416Z,0
2022-09-02T13:49:41.063Z,0.3
2022-09-02T13:50:50.924Z,0.2
2022-09-02T13:51:58.434Z,0.1
2022-09-02T13:54:22.944Z,0.1
2022-09-02T13:55:28.364Z,0.1
2022-09-02T13:56:39.086Z,0.2
2022-09-02T13:57:46.780Z,0.2
2022-09-02T13:58:55.456Z,0.2
2022-09-02T14:00:05.311Z,0.1
2022-09-02T14:01:12.950Z,0.2
2022-09-02T14:02:22.708Z,0.1
2022-09-02T14:03:31.296Z,0
2022-09-02T14:04:39.877Z,0.1
2022-09-02T14:05:49.506Z,0.1
2022-09-02T14:06:59.157Z,0.1
2022-09-02T14:08:07.857Z,0.1
2022-09-02T14:09:17.562Z,0
2022-09-02T14:10:27.229Z,0.2
2022-09-02T14:11:36.949Z,0.2
2022-09-02T14:12:45.614Z,0.1
2022-09-02T14:13:53.361Z,0.1
2022-09-02T14:15:03.037Z,0.1
2022-09-02T14:16:10.747Z,0.1
2022-09-02T14:17:19.362Z,0.1
2022-09-02T14:18:29.059Z,0.2
2022-09-02T14:19:35.782Z,0.1
2022-09-02T14:20:45.443Z,0.1
2022-09-02T14:21:53.106Z,0.1
2022-09-02T14:23:02.779Z,0.1
2022-09-02T14:24:11.451Z,0.2
2022-09-02T14:25:24.217Z,0.1
2022-09-02T14:26:32.013Z,0.1
2022-09-02T14:27:40.680Z,0.1
2022-09-02T14:28:48.343Z,0.2
2022-09-02T14:29:58.018Z,0.2
2022-09-02T14:31:05.747Z,0.1
2022-09-02T14:32:15.349Z,0.1
2022-09-02T14:33:25.025Z,0.1
2022-09-02T14:34:34.717Z,0.1
2022-09-02T14:35:44.383Z,0.2
2022-09-02T14:36:53.051Z,0.1
2022-09-02T14:38:01.730Z,0.1
2022-09-02T14:39:11.398Z,0.4
2022-09-02T14:40:20.072Z,0.1
2022-09-02T14:41:29.746Z,0.1
2022-09-02T14:42:38.524Z,0.2
2022-09-02T14:43:46.198Z,0.2
2022-09-02T14:44:56.032Z,0.1
2022-09-02T14:46:05.734Z,0.1
2022-09-02T14:47:15.406Z,0.2
2022-09-02T14:48:25.072Z,0.1
2022-09-02T14:49:33.780Z,0.3
2022-09-02T14:50:43.470Z,0.1
2022-09-02T14:51:53.130Z,0
2022-09-02T14:53:01.783Z,0.1
2022-09-02T14:54:11.560Z,0.1
2022-09-02T14:55:19.232Z,0.1
2022-09-02T14:56:28.931Z,0.1
2022-09-02T14:57:38.612Z,0.2
2022-09-02T14:58:46.258Z,0.2
2022-09-02T14:59:55.980Z,0.1
2022-09-02T15:01:04.735Z,0.1
2022-09-02T15:02:13.326Z,0.1
2022-09-02T15:03:23.033Z,0.1
2022-09-02T15:04:30.690Z,0.1
2022-09-02T15:05:40.371Z,0.1
2022-09-02T15:06:50.032Z,0.1
2022-09-02T15:07:59.800Z,0.1
2022-09-02T15:09:09.423Z,0.1
2022-09-02T15:10:18.068Z,0.1
2022-09-02T15:11:25.780Z,0
2022-09-02T15:12:35.429Z,0.1
2022-09-02T15:13:43.086Z,0.1
2022-09-02T15:14:52.744Z,0.1
2022-09-02T15:16:02.802Z,0.3
2022-09-02T15:17:11.151Z,0.2
2022-09-02T15:18:20.867Z,0.3
2022-09-02T15:19:29.465Z,0.1
2022-09-02T15:20:37.189Z,0.2
2022-09-02T15:21:45.850Z,0.2
2022-09-02T15:22:53.526Z,0.1
2022-09-02T15:24:02.198Z,0.2
2022-09-02T15:25:11.882Z,0.1
2022-09-02T15:26:20.532Z,0.2
2022-09-02T15:27:30.242Z,0.2
2022-09-02T15:28:39.050Z,0.1
2022-09-02T15:29:47.737Z,0
2022-09-02T15:30:57.445Z,0.2
2022-09-02T15:32:06.073Z,0.1
2022-09-02T15:33:17.100Z,0.2
2022-09-02T15:34:25.411Z,0.1
2022-09-02T15:35:34.101Z,0.3
2022-09-02T15:36:43.789Z,0.2
2022-09-02T15:37:53.405Z,0.2
2022-09-02T15:39:01.051Z,0
2022-09-02T15:40:10.811Z,0.1
2022-09-02T15:41:18.540Z,0
2022-09-02T15:42:27.322Z,0.1
2022-09-02T15:43:36.989Z,0
2022-09-02T15:44:44.644Z,0.1
2022-09-02T15:45:54.364Z,0.1
2022-09-02T15:47:03.057Z,0.1
2022-09-02T15:48:11.742Z,0.1
2022-09-02T15:49:21.401Z,0.1
2022-09-02T15:50:30.177Z,0
2022-09-02T15:51:39.873Z,0.2
2022-09-02T15:52:49.537Z,0.1
2022-09-02T15:53:57.199Z,0.2
2022-09-02T15:55:06.883Z,0.2
2022-09-02T15:56:15.545Z,0.3
2022-09-02T15:57:24.260Z,0.1
2022-09-02T15:58:33.928Z,0.1
2022-09-02T15:59:41.582Z,0.2
2022-09-02T16:00:51.248Z,0.2
2022-09-02T16:02:00.990Z,0.2
2022-09-02T16:03:10.682Z,0.3